• Join FlightAware (Why Join?)
  • Login
  • US Flag 
04:39PM EDT


 

Airport Tracker/Info


-or-


 

Live Flight TrackerFlight Track Log ✈ AAL1361 ✈ 11-Oct-2013 ✈ KBNA - KLAX

Flight Track Log - Related Links

Times and Time Zones

All times are in EDT time to prevent confusion due to time zone crossing. See the AAL1361 flight status page for this flight to view local times or setup timezone preferences in your user account.

Time Position Orientation Groundspeed Altitude Reporting Facility
EDT Latitude Longitude Course Direction KTS MPH feet Rate Location/Type
08:45AM 36.1500 -86.6667 270° West 180 207 1,200  Level Nashville TRACON
08:46AM 36.2167 -86.6500 11° North 234 269 3,200 1,980 Climbing Nashville TRACON
08:47AM 36.2667 -86.6667 345° North 271 312 5,000 2,520 Climbing Nashville TRACON
08:48AM 36.1500 -87.0824 282° West  Level Estimated
08:48AM 36.2667 -86.7500 270° West 275 316 7,500  Level Nashville TRACON
08:49AM 36.1582 -87.2172 278° West  Level Estimated
08:49AM 36.2667 -86.8500 270° West 294 338 10,100  Level Nashville TRACON
08:50AM 36.1663 -87.3521 270° West  Level Estimated
08:50AM 36.2672 -86.9953 270° West 346 398 11,700  Level Memphis Center
08:51AM 36.2683 -87.1186 271° West 366 421 14,200 2,400 Climbing Memphis Center
08:52AM 36.2736 -87.2447 273° West 366 421 16,600 2,340 Climbing Memphis Center
08:53AM 36.2958 -87.3750 282° West 373 429 18,900 2,100 Climbing Memphis Center
08:54AM 36.3131 -87.4903 281° West 382 440 20,900 1,980 Climbing Memphis Center
08:55AM 36.3097 -87.6269 268° West 393 452 22,900 1,620 Climbing Memphis Center
08:56AM 36.3025 -87.7664 266° West 408 470 24,200 1,320 Climbing Memphis Center
08:57AM 36.2950 -87.9158 266° West 433 498 25,600 1,440 Climbing Memphis Center
08:58AM 36.2939 -88.0706 270° West 445 512 27,100 1,500 Climbing Memphis Center
08:59AM 36.2967 -88.2378 271° West 445 512 28,600 1,500 Climbing Memphis Center
09:00AM 36.2994 -88.3972 271° West 451 519 30,100 1,620 Climbing Memphis Center
09:01AM 36.3039 -88.5569 272° West 458 527 31,900 1,800 Climbing Memphis Center
09:02AM 36.3039 -88.7036 270° West 458 527 33,700 1,380 Climbing Memphis Center
09:03AM 36.3058 -88.8503 271° West 441 507 34,700 900 Climbing Memphis Center
09:04AM 36.3075 -89.0022 271° West 441 507 35,500 660 Climbing Memphis Center
09:05AM 36.3069 -89.1517 270° West 441 507 36,100 300 Climbing Memphis Center
09:06AM 36.3019 -89.2781 267° West 448 516 36,100  Level Memphis Center
09:07AM 36.3075 -89.4581 272° West 462 532 36,100  Level Memphis Center
09:08AM 36.3106 -89.6100 271° West 468 539 36,100  Level Memphis Center
09:09AM 36.3136 -89.7569 272° West 449 517 36,100  Level Memphis Center
09:10AM 36.3142 -89.9089 270° West 438 504 36,100  Level Memphis Center
09:11AM 36.3144 -90.0556 270° West 438 504 36,100  Level Memphis Center
09:12AM 36.3150 -90.2075 270° West 438 504 36,100  Level Memphis Center
09:13AM 36.3150 -90.3544 270° West 438 504 36,100  Level Memphis Center
09:14AM 36.3150 -90.5064 270° West 438 504 36,100  Level Memphis Center
09:15AM 36.3147 -90.6558 270° West 438 504 36,100  Level Memphis Center
09:16AM 36.3142 -90.8050 270° West 438 504 36,100  Level Memphis Center
09:17AM 36.3136 -90.9572 270° West 438 504 36,100  Level Memphis Center
09:18AM 36.3147 -91.1064 271° West 438 504 36,100  Level Memphis Center
09:19AM 36.3117 -91.2558 269° West 438 504 36,100  Level Memphis Center
09:20AM 36.3086 -91.4025 269° West 438 504 36,100  Level Memphis Center
09:21AM 36.3072 -91.5519 269° West 438 504 36,100  Level Memphis Center
09:22AM 36.3100 -91.7014 271° West 438 504 36,100  Level Memphis Center
09:23AM 36.3081 -91.8506 269° West 438 504 36,100  Level Memphis Center
09:24AM 36.3064 -92.0000 269° West 438 504 36,100  Level Memphis Center
09:25AM 36.3022 -92.1467 268° West 438 504 36,100  Level Memphis Center
09:26AM 36.3019 -92.2986 270° West 438 504 36,100  Level Memphis Center
09:27AM 36.2997 -92.4481 269° West 438 504 36,100  Level Memphis Center
09:28AM 36.2969 -92.5972 269° West 438 504 36,100  Level Memphis Center
09:29AM 36.2922 -92.7439 268° West 433 498 36,100  Level Memphis Center
09:30AM 36.2894 -92.8906 269° West 433 498 36,100  Level Memphis Center
09:31AM 36.2883 -93.0397 270° West 433 498 36,100  Level Memphis Center
09:32AM 36.2825 -93.2044 268° West 439 505 36,100  Level Memphis Center
09:33AM 36.2792 -93.3511 268° West 439 505 36,100  Level Memphis Center
09:34AM 36.2756 -93.5003 268° West 432 497 36,100  Level Memphis Center
09:35AM 36.2717 -93.6442 268° West 432 497 36,100  Level Memphis Center
09:36AM 36.2703 -93.7781 269° West 432 497 36,100  Level Memphis Center
09:37AM 36.2661 -93.9247 268° West 432 497 36,100  Level Memphis Center
09:38AM 36.2597 -94.0711 267° West 437 503 36,100  Level Memphis Center
09:39AM 36.2572 -94.2203 269° West 437 503 36,100  Level Memphis Center
09:40AM 36.2528 -94.3642 268° West 437 503 36,100  Level Memphis Center
09:41AM 36.2497 -94.4789 268° West 420 483 36,100  Level Kansas City Center
09:42AM 36.2425 -94.6247 267° West 422 486 36,100  Level Kansas City Center
09:43AM 36.2356 -94.7972 267° West 418 481 36,100  Level Kansas City Center
09:44AM 36.2303 -94.9419 267° West 418 481 36,100  Level Kansas City Center
09:45AM 36.2239 -95.0856 267° West 416 479 36,100  Level Kansas City Center
09:46AM 36.2175 -95.2175 267° West 414 476 36,100  Level Kansas City Center
09:47AM 36.2106 -95.3619 267° West 418 481 36,100  Level Kansas City Center
09:48AM 36.2056 -95.5364 268° West 422 486 36,100  Level Kansas City Center
09:49AM 36.2003 -95.6794 267° West 421 484 36,100  Level Kansas City Center
09:50AM 36.1967 -95.8175 268° West 421 484 36,100  Level Kansas City Center
09:51AM 36.2117 -95.9611 277° West 426 490 36,100  Level Kansas City Center
09:52AM 36.2250 -96.1031 277° West 419 482 36,100  Level Kansas City Center
09:53AM 36.2406 -96.2719 277° West 413 475 36,100  Level Kansas City Center
09:54AM 36.2525 -96.4131 276° West 411 473 36,100  Level Kansas City Center
09:55AM 36.2642 -96.5533 276° West 411 473 36,100  Level Kansas City Center
09:56AM 36.2756 -96.6928 276° West 409 471 36,100  Level Kansas City Center
09:57AM 36.2875 -96.8294 276° West 405 466 36,100  Level Kansas City Center
09:58AM 36.2981 -96.9672 275° West 404 465 36,100  Level Kansas City Center
09:59AM 36.3092 -97.1042 276° West 402 463 36,100  Level Kansas City Center
10:00AM 36.3217 -97.2683 275° West 401 461 36,100  Level Kansas City Center
10:02AM 36.3317 -97.4067 275° West 402 463 36,100  Level Kansas City Center
10:03AM 36.3419 -97.5406 275° West 397 457 36,100  Level Kansas City Center
10:04AM 36.3525 -97.6794 275° West 403 464 36,100  Level Kansas City Center
10:05AM 36.3636 -97.8258 275° West 407 468 36,100  Level Kansas City Center
10:06AM 36.3733 -97.9656 275° West 407 468 36,100  Level Kansas City Center
10:07AM 36.3839 -98.1053 275° West 407 468 36,100  Level Kansas City Center
10:08AM 36.3944 -98.2711 275° West 403 464 36,100  Level Kansas City Center
10:09AM 36.4042 -98.4094 275° West 402 463 36,100  Level Kansas City Center
10:10AM 36.4136 -98.5469 275° West 401 461 36,100  Level Kansas City Center
10:11AM 36.4225 -98.6825 275° West 397 457 36,100  Level Kansas City Center
10:12AM 36.4308 -98.8194 274° West 398 458 36,100  Level Kansas City Center
10:13AM 36.4403 -98.9556 275° West 398 458 36,100  Level Kansas City Center
10:14AM 36.4500 -99.1186 274° West 397 457 36,100  Level Kansas City Center
10:15AM 36.4578 -99.2558 274° West 400 460 36,100  Level Kansas City Center
10:16AM 36.4667 -99.3917 275° West 398 458 36,100  Level Kansas City Center
10:17AM 36.4736 -99.5256 274° West 393 452 36,100  Level Kansas City Center
10:18AM 36.4822 -99.6606 275° West 393 452 36,100  Level Kansas City Center
10:19AM 36.4900 -99.8225 273° West 392 451 36,100  Level Kansas City Center
10:20AM 36.4983 -99.9567 274° West 391 450 36,100  Level Kansas City Center
10:21AM 36.5097 -100.0917 276° West 392 451 36,100  Level Kansas City Center
10:22AM 36.5256 -100.2256 278° West 392 451 36,100  Level Kansas City Center
10:23AM 36.5397 -100.3597 278° West 392 451 36,100  Level Kansas City Center
10:24AM 36.5533 -100.5000 277° West 393 452 36,100  Level Kansas City Center
10:25AM 36.5694 -100.6494 278° West 391 450 36,100  Level Kansas City Center
10:26AM 36.5819 -100.7778 277° West 391 450 36,100  Level Kansas City Center
10:27AM 36.5978 -100.9278 278° West 390 449 36,100  Level Kansas City Center
10:28AM 36.6097 -101.0556 277° West 389 448 36,100  Level Kansas City Center
10:29AM 36.6247 -101.2050 277° West 389 448 36,100  Level Kansas City Center
10:30AM 36.6383 -101.3325 278° West 389 448 36,100  Level Kansas City Center
10:31AM 36.6503 -101.4603 277° West 388 447 36,100  Level Kansas City Center
10:32AM 36.6639 -101.6061 277° West 383 441 36,100  Level Kansas City Center
10:34AM 36.6761 -101.7325 277° West 382 440 36,100  Level Kansas City Center
10:35AM 36.6889 -101.8767 276° West 379 436 36,100  Level Kansas City Center
10:36AM 36.7011 -102.0028 277° West 381 438 36,100  Level Kansas City Center
10:37AM 36.7144 -102.1500 276° West 382 440 36,100  Level Kansas City Center
10:38AM 36.7264 -102.2742 277° West 379 436 36,100  Level Kansas City Center
10:39AM 36.7383 -102.4189 276° West 377 434 36,100  Level Kansas City Center
10:40AM 36.7494 -102.5442 276° West 378 435 36,100  Level Kansas City Center
10:41AM 36.7625 -102.6894 276° West 378 435 36,100  Level Kansas City Center
10:42AM 36.7747 -102.8364 276° West 379 436 36,100  Level Albuquerque Center
10:43AM 36.7847 -102.9608 276° West 378 435 36,100  Level Albuquerque Center
10:44AM 36.7981 -103.1042 277° West 375 432 36,100  Level Albuquerque Center
10:45AM 36.8072 -103.2281 275° West 374 430 36,100  Level Albuquerque Center
10:46AM 36.8189 -103.3703 276° West 370 426 36,100  Level Albuquerque Center
10:47AM 36.8281 -103.4914 275° West 367 422 36,100  Level Albuquerque Center
10:48AM 36.8392 -103.6339 276° West 368 423 36,100  Level Albuquerque Center
10:49AM 36.8489 -103.7539 276° West 365 420 36,100  Level Albuquerque Center
10:50AM 36.8583 -103.8772 276° West 368 423 36,100  Level Albuquerque Center
10:51AM 36.8692 -104.0208 275° West 370 426 36,100  Level Albuquerque Center
10:52AM 36.8786 -104.1425 276° West 369 425 36,100  Level Albuquerque Center
10:53AM 36.8886 -104.2850 275° West 368 423 36,100  Level Albuquerque Center
10:54AM 36.8981 -104.4067 276° West 367 422 36,100  Level Albuquerque Center
10:55AM 36.9072 -104.5469 275° West 366 421 36,100  Level Albuquerque Center
10:56AM 36.9164 -104.6731 275° West 364 419 36,100  Level Albuquerque Center
10:57AM 36.9250 -104.7978 275° West 360 414 36,100  Level Albuquerque Center
10:58AM 36.9336 -104.9325 275° West 372 428 36,100  Level Albuquerque Center
10:59AM 36.9422 -105.0606 275° West 380 437 36,100  Level Albuquerque Center
11:01AM 36.9522 -105.2078 275° West 382 440 36,100  Level Albuquerque Center
11:02AM 36.9597 -105.3372 274° West 388 447 36,100  Level Albuquerque Center
11:03AM 36.9692 -105.4850 275° West 383 441 36,100 -60 Level Albuquerque Center
11:04AM 36.9775 -105.6158 275° West 375 432 36,000 -60 Descending Albuquerque Center
11:05AM 36.9853 -105.7447 274° West 373 429 36,000  Level Albuquerque Center
11:06AM 36.9925 -105.8725 274° West 371 427 36,000  Level Albuquerque Center
11:07AM 36.9994 -105.9994 274° West 369 425 36,000  Level Albuquerque Center
11:08AM 37.0025 -106.1225 272° West 359 413 36,100  Climbing Albuquerque Center
11:09AM 37.0039 -106.2558 271° West 357 411 36,100  Level Albuquerque Center
11:10AM 37.0069 -106.4150 271° West 363 418 36,100  Level Denver Center
11:11AM 37.0075 -106.5564 270° West 364 419 36,100  Level Denver Center
11:12AM 37.0089 -106.6794 271° West 369 425 36,100  Level Denver Center
11:13AM 37.0111 -106.8222 271° West 368 423 36,100  Level Denver Center
11:14AM 37.0117 -106.9453 270° West 369 425 36,100  Level Denver Center
11:15AM 37.0128 -107.0906 271° West 374 430 36,100  Level Denver Center
11:16AM 37.0142 -107.2164 271° West 377 434 36,100  Level Denver Center
11:17AM 37.0403 -107.3639 283° West 410 472 36,100  Level Denver Center
11:18AM 37.0736 -107.4908 288° West 403 464 36,100  Level Denver Center
11:19AM 37.1125 -107.6417 288° West 406 467 36,100  Level Denver Center
11:20AM 37.1453 -107.7744 287° West 415 478 36,100  Level Denver Center
11:21AM 37.1981 -107.9228 294° West 424 488 36,100  Level Denver Center
11:22AM 37.2517 -108.0506 298° West 430 495 36,100  Level Denver Center
11:24AM 37.3139 -108.1967 298° West 426 490 36,100  Level Denver Center
11:25AM 37.3653 -108.3250 297° West 429 494 36,100  Level Denver Center
11:26AM 37.3600 -108.4597 267° West 418 481 36,100  Level Denver Center
11:27AM 37.3136 -108.6047 248° West 401 461 36,100  Level Denver Center
11:28AM 37.2736 -108.7317 248° West 405 466 36,100  Level Denver Center
11:29AM 37.2267 -108.8819 249° West 411 473 36,100  Level Denver Center
11:30AM 37.1872 -109.0092 249° West 410 472 36,100  Level Denver Center
11:31AM 37.1400 -109.1553 248° West 408 470 36,100  Level Denver Center
11:32AM 37.0989 -109.2828 248° West 411 473 36,100  Level Denver Center
11:33AM 37.0503 -109.4308 248° West 414 476 36,100  Level Denver Center
11:34AM 37.0108 -109.5561 249° West 410 472 36,100  Level Denver Center
11:35AM 36.9644 -109.6953 247° West 395 455 36,100  Level Denver Center
11:36AM 36.9253 -109.8167 248° West 394 453 36,100  Level Denver Center
11:37AM 36.8794 -109.9578 248° West 393 452 36,100  Level Denver Center
11:38AM 36.8383 -110.0781 247° West 395 455 36,100  Level Denver Center
11:39AM 36.7928 -110.2144 247° West 394 453 36,100  Level Denver Center
11:40AM 36.7519 -110.3406 248° West 392 451 36,100  Level Denver Center
11:41AM 36.7100 -110.4672 248° West 395 455 36,100  Level Denver Center
11:42AM 36.6658 -110.5936 246° West 398 458 36,100  Level Denver Center
11:43AM 36.6150 -110.7464 248° West 398 458 36,100  Level Denver Center
11:44AM 36.5722 -110.8747 247° West 400 460 36,100  Level Denver Center
11:45AM 36.5278 -111.0033 247° West 402 463 36,100  Level Denver Center
11:46AM 36.4831 -111.1333 247° West 407 468 36,100  Level Denver Center
11:47AM 36.4394 -111.2619 247° West 406 467 36,100  Level Denver Center
11:48AM 36.3942 -111.3928 247° West 409 471 36,100  Level Denver Center
11:49AM 36.3450 -111.5211 245° Southwest 411 473 36,100  Level Denver Center
11:50AM 36.2883 -111.6769 246° West 412 474 36,100  Level Denver Center
11:51AM 36.2414 -111.8044 245° Southwest 409 471 36,100  Level Denver Center
11:52AM 36.1939 -111.9319 245° Southwest 408 470 36,100  Level Denver Center
11:54AM 36.1467 -112.0592 245° Southwest 407 468 36,100  Level Denver Center
11:55AM 36.0983 -112.1883 245° Southwest 411 473 36,100  Level Denver Center
11:56AM 36.0511 -112.3167 246° West 412 474 36,100  Level Denver Center
11:56AM 36.0217 -112.3936 245° Southwest 409 471 36,100  Level Los Angeles Center
11:57AM 35.9706 -112.5236 244° Southwest 418 481 36,100  Level Los Angeles Center
11:58AM 35.9175 -112.6675 246° West 434 499 36,100  Level Los Angeles Center
11:59AM 35.8658 -112.8019 245° Southwest 437 503 36,100  Level Los Angeles Center
12:00PM 35.8142 -112.9394 245° Southwest 444 511 36,100  Level Los Angeles Center
12:01PM 35.7514 -113.1031 245° Southwest 447 514 36,100  Level Los Angeles Center
12:02PM 35.6989 -113.2392 245° Southwest 446 513 36,100  Level Los Angeles Center
12:03PM 35.6467 -113.3728 244° Southwest 443 510 36,100  Level Los Angeles Center
12:04PM 35.5931 -113.5097 244° Southwest 448 516 36,100  Level Los Angeles Center
12:05PM 35.5397 -113.6461 244° Southwest 448 516 36,100  Level Los Angeles Center
12:06PM 35.4750 -113.8106 244° Southwest 452 520 36,100  Level Los Angeles Center
12:07PM 35.4158 -113.9575 244° Southwest 448 516 36,100  Level Los Angeles Center
12:08PM 35.3611 -114.0972 244° Southwest 453 521 36,100  Level Los Angeles Center
12:10PM 35.3061 -114.2339 244° Southwest 449 517 36,100  Level Los Angeles Center
12:11PM 35.2517 -114.3722 244° Southwest 451 519 36,100  Level Los Angeles Center
12:12PM 35.1969 -114.5103 244° Southwest 451 519 36,100  Level Los Angeles Center
12:13PM 35.1397 -114.6481 243° Southwest 453 521 36,100  Level Los Angeles Center
12:14PM 35.0742 -114.8106 244° Southwest 447 514 36,100  Level Los Angeles Center
12:15PM 35.0283 -114.9475 248° West 439 505 36,100  Level Los Angeles Center
12:16PM 35.0047 -115.1197 261° West 431 496 36,100  Level Los Angeles Center
12:17PM 34.9856 -115.2600 261° West 431 496 36,100  Level Los Angeles Center
12:18PM 34.9458 -115.3994 251° West 438 504 36,100  Level Los Angeles Center
12:19PM 34.8811 -115.5364 240° Southwest 447 514 36,100  Level Los Angeles Center
12:20PM 34.8081 -115.6897 240° Southwest 450 518 36,100  Level Los Angeles Center
12:21PM 34.7453 -115.8208 240° Southwest 450 518 36,100 -60 Level Los Angeles Center
12:22PM 34.6806 -115.9519 239° Southwest 452 520 36,000 -1,320 Descending Los Angeles Center
12:23PM 34.6178 -116.0911 241° Southwest 464 534 33,400 -2,280 Descending Los Angeles Center
12:24PM 34.5833 -116.2417 255° West 466 536 30,900 -2,220 Descending Los Angeles Center
12:25PM 34.5411 -116.4153 254° West 453 521 28,400 -1,860 Descending Los Angeles Center
12:27PM 34.4967 -116.5736 251° West 433 498 27,100 -720 Descending Los Angeles Center
12:28PM 34.4303 -116.6767 232° Southwest 404 465 27,000 -900 Descending Los Angeles Center
12:29PM 34.3547 -116.7783 228° Southwest 404 465 25,300 -1,920 Descending Los Angeles Center
12:30PM 34.2814 -116.8772 228° Southwest 399 459 23,100 -2,160 Descending Los Angeles Center
12:31PM 34.2086 -116.9744 228° Southwest 393 452 20,900 -2,160 Descending Los Angeles Center
12:32PM 34.1386 -117.0678 228° Southwest 385 443 18,600 -1,800 Descending Los Angeles Center
12:33PM 34.0786 -117.1756 236° Southwest 374 430 17,200 -1,740 Descending Los Angeles Center
12:34PM 34.0414 -117.3064 251° West 346 398 15,100 -1,800 Descending Los Angeles Center
12:35PM 34.0303 -117.4161 263° West 331 381 13,600 -1,380 Descending Los Angeles Center
12:36PM 34.0217 -117.5197 264° West 314 361 12,300 -1,380 Descending Los Angeles Center
12:37PM 34.0167 -117.6333 267° West 356 410 10,700 -1,380 Descending Southern California TRACON
12:38PM 34.0000 -117.7500 260° West 285 328 9,200 -1,440 Descending Southern California TRACON
12:39PM 33.9833 -117.8500 259° West 288 331 7,800 -1,380 Descending Southern California TRACON
12:40PM 33.9833 -117.9333 270° West 282 325 6,600 -1,140 Descending Southern California TRACON
12:41PM 33.9667 -118.0167 256° West 272 313 5,600 -1,140 Descending Southern California TRACON
12:42PM 33.9667 -118.1167 270° West 272 313 4,400 -1,320 Descending Southern California TRACON
12:43PM 33.9500 -118.2000 256° West 261 300 3,000 -1,320 Descending Southern California TRACON
12:44PM 33.9500 -118.2833 270° West 213 245 1,800 -1,020 Descending Southern California TRACON
12:45PM 33.9500 -118.3333 270° West 148 170 1,000 -780 Descending Southern California TRACON
12:46PM 33.9381 -118.3881 255° West 141 162 100 -780 Descending Los Angeles Center